sensor_id;sensor_type;location;lat;lon;timestamp;pressure;altitude;pressure_sealevel;temperature;humidity
63691;BME280;49837;57.280;27.070;2023-02-17T00:00:27;100105.75;;;-0.99;99.3
63691;BME280;49837;57.280;27.070;2023-02-17T00:01:30;100106.27;;;-0.98;99.34
63691;BME280;49837;57.280;27.070;2023-02-17T00:02:28;100100.73;;;-1.01;99.38
63691;BME280;49837;57.280;27.070;2023-02-17T00:03:28;100103.7;;;-1.05;99.49
63691;BME280;49837;57.280;27.070;2023-02-17T00:04:30;100100.83;;;-1.0;99.53
63691;BME280;49837;57.280;27.070;2023-02-17T00:05:29;100099.57;;;-0.97;99.41
63691;BME280;49837;57.280;27.070;2023-02-17T00:06:30;100096.62;;;-0.97;99.34
63691;BME280;49837;57.280;27.070;2023-02-17T00:07:31;100095.35;;;-1.04;99.29
63691;BME280;49837;57.280;27.070;2023-02-17T00:08:30;100100.98;;;-1.05;99.46
63691;BME280;49837;57.280;27.070;2023-02-17T00:09:31;100101.92;;;-1.03;99.57
63691;BME280;49837;57.280;27.070;2023-02-17T00:10:31;100099.92;;;-1.05;99.69
63691;BME280;49837;57.280;27.070;2023-02-17T00:11:31;100098.77;;;-1.07;99.82
63691;BME280;49837;57.280;27.070;2023-02-17T00:12:32;100099.86;;;-1.1;100.0
63691;BME280;49837;57.280;27.070;2023-02-17T00:13:32;100092.62;;;-1.07;100.0
63691;BME280;49837;57.280;27.070;2023-02-17T00:14:32;100094.95;;;-1.04;100.0
63691;BME280;49837;57.280;27.070;2023-02-17T00:15:33;100097.33;;;-0.99;100.0
63691;BME280;49837;57.280;27.070;2023-02-17T00:16:33;100099.61;;;-1.05;99.91
63691;BME280;49837;57.280;27.070;2023-02-17T00:17:33;100097.44;;;-1.02;99.95
63691;BME280;49837;57.280;27.070;2023-02-17T00:18:34;100095.84;;;-1.01;99.96
63691;BME280;49837;57.280;27.070;2023-02-17T00:19:34;100097.46;;;-1.02;99.96
63691;BME280;49837;57.280;27.070;2023-02-17T00:20:34;100100.71;;;-1.02;99.96
63691;BME280;49837;57.280;27.070;2023-02-17T00:21:34;100099.11;;;-1.0;99.89
63691;BME280;49837;57.280;27.070;2023-02-17T00:22:35;100102.09;;;-0.97;99.77
63691;BME280;49837;57.280;27.070;2023-02-17T00:23:35;100097.17;;;-0.98;99.64
63691;BME280;49837;57.280;27.070;2023-02-17T00:24:39;100095.08;;;-0.96;99.67
63691;BME280;49837;57.280;27.070;2023-02-17T00:25:37;100093.24;;;-0.98;99.61
63691;BME280;49837;57.280;27.070;2023-02-17T00:26:37;100095.73;;;-1.01;99.68
63691;BME280;49837;57.280;27.070;2023-02-17T00:27:37;100090.0;;;-1.01;99.76
63691;BME280;49837;57.280;27.070;2023-02-17T00:28:37;100093.36;;;-1.07;100.0
63691;BME280;49837;57.280;27.070;2023-02-17T00:29:38;100090.55;;;-1.03;100.0
63691;BME280;49837;57.280;27.070;2023-02-17T00:30:38;100090.58;;;-1.01;100.0
63691;BME280;49837;57.280;27.070;2023-02-17T00:31:39;100092.58;;;-0.98;100.0
63691;BME280;49837;57.280;27.070;2023-02-17T00:32:39;100087.02;;;-0.98;100.0
63691;BME280;49837;57.280;27.070;2023-02-17T00:33:39;100086.84;;;-0.94;100.0
63691;BME280;49837;57.280;27.070;2023-02-17T00:34:39;100083.38;;;-1.02;100.0
63691;BME280;49837;57.280;27.070;2023-02-17T00:35:40;100084.98;;;-0.98;100.0
63691;BME280;49837;57.280;27.070;2023-02-17T00:36:40;100080.75;;;-0.96;100.0
63691;BME280;49837;57.280;27.070;2023-02-17T00:37:40;100079.99;;;-0.99;100.0
63691;BME280;49837;57.280;27.070;2023-02-17T00:38:41;100077.7;;;-0.97;100.0
63691;BME280;49837;57.280;27.070;2023-02-17T00:39:41;100077.45;;;-0.98;100.0
63691;BME280;49837;57.280;27.070;2023-02-17T00:40:41;100080.59;;;-1.01;100.0
63691;BME280;49837;57.280;27.070;2023-02-17T00:41:42;100076.07;;;-0.97;100.0
63691;BME280;49837;57.280;27.070;2023-02-17T00:42:42;100076.39;;;-1.02;100.0
63691;BME280;49837;57.280;27.070;2023-02-17T00:43:42;100075.31;;;-1.03;100.0
63691;BME280;49837;57.280;27.070;2023-02-17T00:44:43;100077.38;;;-1.02;100.0
63691;BME280;49837;57.280;27.070;2023-02-17T00:45:43;100074.58;;;-1.03;100.0
63691;BME280;49837;57.280;27.070;2023-02-17T00:46:45;100073.23;;;-1.0;100.0
63691;BME280;49837;57.280;27.070;2023-02-17T00:47:44;100072.48;;;-0.95;100.0
63691;BME280;49837;57.280;27.070;2023-02-17T00:48:45;100069.3;;;-0.96;100.0
63691;BME280;49837;57.280;27.070;2023-02-17T00:49:44;100066.28;;;-1.0;100.0
63691;BME280;49837;57.280;27.070;2023-02-17T00:50:45;100062.46;;;-1.03;100.0
63691;BME280;49837;57.280;27.070;2023-02-17T00:51:46;100063.22;;;-1.02;100.0
63691;BME280;49837;57.280;27.070;2023-02-17T00:52:46;100064.55;;;-1.01;100.0
63691;BME280;49837;57.280;27.070;2023-02-17T00:53:46;100064.09;;;-1.05;100.0
63691;BME280;49837;57.280;27.070;2023-02-17T00:54:46;100058.2;;;-1.03;100.0
63691;BME280;49837;57.280;27.070;2023-02-17T00:55:47;100057.0;;;-1.03;100.0
63691;BME280;49837;57.280;27.070;2023-02-17T00:56:47;100054.38;;;-1.02;100.0
63691;BME280;49837;57.280;27.070;2023-02-17T00:57:48;100054.11;;;-1.08;100.0
63691;BME280;49837;57.280;27.070;2023-02-17T00:58:48;100056.03;;;-1.07;100.0
63691;BME280;49837;57.280;27.070;2023-02-17T00:59:48;100056.66;;;-1.07;100.0
63691;BME280;49837;57.280;27.070;2023-02-17T01:00:48;100057.47;;;-1.03;100.0
63691;BME280;49837;57.280;27.070;2023-02-17T01:01:49;100057.47;;;-1.03;100.0
63691;BME280;49837;57.280;27.070;2023-02-17T01:02:49;100056.54;;;-1.0;100.0
63691;BME280;49837;57.280;27.070;2023-02-17T01:03:49;100056.63;;;-0.99;100.0
63691;BME280;49837;57.280;27.070;2023-02-17T01:04:50;100054.69;;;-1.03;100.0
63691;BME280;49837;57.280;27.070;2023-02-17T01:05:50;100054.46;;;-1.02;100.0
63691;BME280;49837;57.280;27.070;2023-02-17T01:06:50;100056.27;;;-1.02;100.0
63691;BME280;49837;57.280;27.070;2023-02-17T01:07:51;100054.14;;;-1.02;100.0
63691;BME280;49837;57.280;27.070;2023-02-17T01:08:52;100053.47;;;-1.07;100.0
63691;BME280;49837;57.280;27.070;2023-02-17T01:09:51;100051.42;;;-1.07;100.0
63691;BME280;49837;57.280;27.070;2023-02-17T01:10:52;100052.78;;;-1.04;100.0
63691;BME280;49837;57.280;27.070;2023-02-17T01:11:52;100053.1;;;-1.06;100.0
63691;BME280;49837;57.280;27.070;2023-02-17T01:12:52;100049.32;;;-1.07;100.0
63691;BME280;49837;57.280;27.070;2023-02-17T01:13:53;100051.91;;;-1.04;100.0
63691;BME280;49837;57.280;27.070;2023-02-17T01:14:53;100049.75;;;-1.06;100.0
63691;BME280;49837;57.280;27.070;2023-02-17T01:15:53;100047.35;;;-1.06;100.0
63691;BME280;49837;57.280;27.070;2023-02-17T01:16:54;100049.52;;;-1.04;100.0
63691;BME280;49837;57.280;27.070;2023-02-17T01:17:54;100043.29;;;-1.04;100.0
63691;BME280;49837;57.280;27.070;2023-02-17T01:18:55;100044.88;;;-1.02;100.0
63691;BME280;49837;57.280;27.070;2023-02-17T01:19:55;100047.58;;;-1.02;100.0
63691;BME280;49837;57.280;27.070;2023-02-17T01:20:55;100042.17;;;-0.99;100.0
63691;BME280;49837;57.280;27.070;2023-02-17T01:21:55;100047.08;;;-0.97;100.0
63691;BME280;49837;57.280;27.070;2023-02-17T01:22:56;100044.16;;;-1.01;100.0
63691;BME280;49837;57.280;27.070;2023-02-17T01:23:58;100043.25;;;-1.03;100.0
63691;BME280;49837;57.280;27.070;2023-02-17T01:24:56;100046.05;;;-1.02;100.0
63691;BME280;49837;57.280;27.070;2023-02-17T01:25:57;100045.61;;;-1.02;100.0
63691;BME280;49837;57.280;27.070;2023-02-17T01:26:57;100046.31;;;-1.0;100.0
63691;BME280;49837;57.280;27.070;2023-02-17T01:27:57;100045.97;;;-1.01;100.0
63691;BME280;49837;57.280;27.070;2023-02-17T01:28:58;100045.43;;;-0.98;100.0
63691;BME280;49837;57.280;27.070;2023-02-17T01:29:58;100042.16;;;-0.98;100.0
63691;BME280;49837;57.280;27.070;2023-02-17T01:31:04;100038.03;;;-0.95;100.0
63691;BME280;49837;57.280;27.070;2023-02-17T01:32:02;100041.56;;;-0.93;100.0
63691;BME280;49837;57.280;27.070;2023-02-17T01:33:02;100038.13;;;-0.94;100.0
63691;BME280;49837;57.280;27.070;2023-02-17T01:34:03;100042.34;;;-0.97;100.0
63691;BME280;49837;57.280;27.070;2023-02-17T01:35:03;100037.17;;;-0.98;100.0
63691;BME280;49837;57.280;27.070;2023-02-17T01:36:06;100037.54;;;-1.05;100.0
63691;BME280;49837;57.280;27.070;2023-02-17T01:37:04;100038.77;;;-1.05;100.0
63691;BME280;49837;57.280;27.070;2023-02-17T01:38:04;100038.12;;;-1.05;100.0
63691;BME280;49837;57.280;27.070;2023-02-17T01:39:05;100037.25;;;-1.03;100.0
63691;BME280;49837;57.280;27.070;2023-02-17T01:40:06;100037.25;;;-1.03;100.0
63691;BME280;49837;57.280;27.070;2023-02-17T01:41:06;100035.45;;;-1.03;100.0
63691;BME280;49837;57.280;27.070;2023-02-17T01:42:08;100035.02;;;-1.04;100.0
63691;BME280;49837;57.280;27.070;2023-02-17T01:43:14;100033.53;;;-1.0;100.0
63691;BME280;49837;57.280;27.070;2023-02-17T01:44:18;100028.55;;;-1.04;100.0
63691;BME280;49837;57.280;27.070;2023-02-17T01:46:18;100024.53;;;-1.11;100.0
63691;BME280;49837;57.280;27.070;2023-02-17T01:47:18;100023.25;;;-1.1;100.0
63691;BME280;49837;57.280;27.070;2023-02-17T01:48:27;100022.82;;;-1.11;100.0
63691;BME280;49837;57.280;27.070;2023-02-17T01:49:26;100023.69;;;-1.08;100.0
63691;BME280;49837;57.280;27.070;2023-02-17T01:50:29;100022.47;;;-1.06;100.0
63691;BME280;49837;57.280;27.070;2023-02-17T01:51:31;100022.48;;;-1.05;100.0
63691;BME280;49837;57.280;27.070;2023-02-17T01:52:30;100022.33;;;-1.01;100.0
63691;BME280;49837;57.280;27.070;2023-02-17T01:53:40;100023.0;;;-1.0;100.0
63691;BME280;49837;57.280;27.070;2023-02-17T01:54:44;100019.83;;;-1.04;100.0
63691;BME280;49837;57.280;27.070;2023-02-17T01:55:39;100020.4;;;-1.02;100.0
63691;BME280;49837;57.280;27.070;2023-02-17T01:56:41;100022.69;;;-1.02;100.0
63691;BME280;49837;57.280;27.070;2023-02-17T01:57:40;100019.57;;;-1.08;100.0
63691;BME280;49837;57.280;27.070;2023-02-17T01:58:44;100015.34;;;-1.08;100.0
63691;BME280;49837;57.280;27.070;2023-02-17T01:59:43;100018.38;;;-1.07;100.0
63691;BME280;49837;57.280;27.070;2023-02-17T02:00:43;100016.2;;;-1.09;100.0
63691;BME280;49837;57.280;27.070;2023-02-17T02:01:44;100017.3;;;-1.07;100.0
63691;BME280;49837;57.280;27.070;2023-02-17T02:02:46;100017.64;;;-1.01;100.0
63691;BME280;49837;57.280;27.070;2023-02-17T02:03:45;100014.45;;;-1.01;100.0
63691;BME280;49837;57.280;27.070;2023-02-17T02:04:48;100011.5;;;-1.01;100.0
63691;BME280;49837;57.280;27.070;2023-02-17T02:05:47;100016.03;;;-1.04;100.0
63691;BME280;49837;57.280;27.070;2023-02-17T02:06:47;100011.17;;;-1.07;100.0
63691;BME280;49837;57.280;27.070;2023-02-17T02:07:49;100009.91;;;-1.08;100.0
63691;BME280;49837;57.280;27.070;2023-02-17T02:09:00;100008.76;;;-1.1;100.0
63691;BME280;49837;57.280;27.070;2023-02-17T02:09:52;100005.27;;;-1.13;100.0
63691;BME280;49837;57.280;27.070;2023-02-17T02:10:50;100008.23;;;-1.12;100.0
63691;BME280;49837;57.280;27.070;2023-02-17T02:11:51;100007.84;;;-1.09;100.0
63691;BME280;49837;57.280;27.070;2023-02-17T02:12:51;100010.18;;;-1.08;100.0
63691;BME280;49837;57.280;27.070;2023-02-17T02:13:51;99999.98;;;-1.05;100.0
63691;BME280;49837;57.280;27.070;2023-02-17T02:14:55;100003.84;;;-1.05;100.0
63691;BME280;49837;57.280;27.070;2023-02-17T02:16:07;100001.33;;;-1.02;100.0
63691;BME280;49837;57.280;27.070;2023-02-17T02:23:39;99993.45;;;-1.1;100.0
63691;BME280;49837;57.280;27.070;2023-02-17T02:40:00;99983.95;;;-1.1;100.0
63691;BME280;49837;57.280;27.070;2023-02-17T02:42:07;99975.36;;;-1.15;100.0
63691;BME280;49837;57.280;27.070;2023-02-17T02:43:06;99978.09;;;-1.13;100.0
63691;BME280;49837;57.280;27.070;2023-02-17T02:44:07;99979.64;;;-1.14;100.0
63691;BME280;49837;57.280;27.070;2023-02-17T02:45:08;99977.09;;;-1.1;100.0
63691;BME280;49837;57.280;27.070;2023-02-17T02:46:07;99976.63;;;-1.12;100.0
63691;BME280;49837;57.280;27.070;2023-02-17T02:48:12;99973.09;;;-1.07;100.0
63691;BME280;49837;57.280;27.070;2023-02-17T02:49:12;99973.5;;;-1.07;100.0
63691;BME280;49837;57.280;27.070;2023-02-17T02:54:36;99966.59;;;-1.16;99.91
63691;BME280;49837;57.280;27.070;2023-02-17T02:59:51;99964.56;;;-1.15;99.89
63691;BME280;49837;57.280;27.070;2023-02-17T03:04:01;99961.78;;;-1.15;99.73
63691;BME280;49837;57.280;27.070;2023-02-17T03:05:58;99958.69;;;-1.19;99.72
63691;BME280;49837;57.280;27.070;2023-02-17T03:07:21;99958.6;;;-1.19;99.79
63691;BME280;49837;57.280;27.070;2023-02-17T03:08:11;99953.84;;;-1.15;99.77
63691;BME280;49837;57.280;27.070;2023-02-17T03:09:12;99954.77;;;-1.14;99.75
63691;BME280;49837;57.280;27.070;2023-02-17T03:10:10;99949.76;;;-1.14;99.68
63691;BME280;49837;57.280;27.070;2023-02-17T03:11:11;99951.23;;;-1.19;99.62
63691;BME280;49837;57.280;27.070;2023-02-17T03:12:11;99951.73;;;-1.19;99.68
63691;BME280;49837;57.280;27.070;2023-02-17T03:13:11;99954.95;;;-1.17;99.7
63691;BME280;49837;57.280;27.070;2023-02-17T03:14:14;99951.98;;;-1.18;99.71
63691;BME280;49837;57.280;27.070;2023-02-17T03:15:27;99952.59;;;-1.17;99.7
63691;BME280;49837;57.280;27.070;2023-02-17T03:16:15;99957.88;;;-1.14;99.71
63691;BME280;49837;57.280;27.070;2023-02-17T03:17:15;99958.56;;;-1.16;99.7
63691;BME280;49837;57.280;27.070;2023-02-17T03:18:16;99959.28;;;-1.18;99.65
63691;BME280;49837;57.280;27.070;2023-02-17T03:19:17;99960.63;;;-1.2;99.7
63691;BME280;49837;57.280;27.070;2023-02-17T03:20:16;99956.0;;;-1.18;99.67
63691;BME280;49837;57.280;27.070;2023-02-17T03:21:16;99960.29;;;-1.16;99.63
63691;BME280;49837;57.280;27.070;2023-02-17T03:22:25;99957.38;;;-1.14;99.62
63691;BME280;49837;57.280;27.070;2023-02-17T03:23:20;99949.84;;;-1.19;99.66
63691;BME280;49837;57.280;27.070;2023-02-17T03:24:20;99949.89;;;-1.16;99.69
63691;BME280;49837;57.280;27.070;2023-02-17T03:25:21;99950.95;;;-1.17;99.72
63691;BME280;49837;57.280;27.070;2023-02-17T03:26:21;99950.64;;;-1.16;99.76
63691;BME280;49837;57.280;27.070;2023-02-17T03:27:21;99949.0;;;-1.16;99.81
63691;BME280;49837;57.280;27.070;2023-02-17T03:28:21;99951.05;;;-1.15;99.79
63691;BME280;49837;57.280;27.070;2023-02-17T03:29:22;99948.05;;;-1.14;99.85
63691;BME280;49837;57.280;27.070;2023-02-17T03:30:22;99948.58;;;-1.17;100.0
63691;BME280;49837;57.280;27.070;2023-02-17T03:31:22;99951.55;;;-1.15;100.0
63691;BME280;49837;57.280;27.070;2023-02-17T03:32:23;99949.12;;;-1.13;100.0
63691;BME280;49837;57.280;27.070;2023-02-17T03:33:23;99943.31;;;-1.13;100.0
63691;BME280;49837;57.280;27.070;2023-02-17T03:34:23;99949.83;;;-1.15;100.0
63691;BME280;49837;57.280;27.070;2023-02-17T03:35:24;99950.55;;;-1.21;100.0
63691;BME280;49837;57.280;27.070;2023-02-17T03:36:24;99950.53;;;-1.29;100.0
63691;BME280;49837;57.280;27.070;2023-02-17T03:37:24;99945.36;;;-1.3;100.0
63691;BME280;49837;57.280;27.070;2023-02-17T03:38:25;99949.43;;;-1.32;100.0
63691;BME280;49837;57.280;27.070;2023-02-17T03:39:25;99946.88;;;-1.26;100.0
63691;BME280;49837;57.280;27.070;2023-02-17T03:40:26;99947.3;;;-1.27;100.0
63691;BME280;49837;57.280;27.070;2023-02-17T03:41:26;99945.16;;;-1.21;100.0
63691;BME280;49837;57.280;27.070;2023-02-17T03:42:26;99946.75;;;-1.25;100.0
63691;BME280;49837;57.280;27.070;2023-02-17T03:43:26;99942.55;;;-1.27;100.0
63691;BME280;49837;57.280;27.070;2023-02-17T03:44:27;99940.51;;;-1.2;100.0
63691;BME280;49837;57.280;27.070;2023-02-17T03:45:27;99936.8;;;-1.21;100.0
63691;BME280;49837;57.280;27.070;2023-02-17T03:46:27;99939.12;;;-1.21;100.0
63691;BME280;49837;57.280;27.070;2023-02-17T03:47:28;99939.95;;;-1.2;100.0
63691;BME280;49837;57.280;27.070;2023-02-17T03:48:28;99935.7;;;-1.18;100.0
63691;BME280;49837;57.280;27.070;2023-02-17T03:49:29;99938.36;;;-1.16;100.0
63691;BME280;49837;57.280;27.070;2023-02-17T03:50:29;99937.69;;;-1.17;100.0
63691;BME280;49837;57.280;27.070;2023-02-17T03:51:29;99940.25;;;-1.22;100.0
63691;BME280;49837;57.280;27.070;2023-02-17T03:52:29;99940.54;;;-1.23;100.0
63691;BME280;49837;57.280;27.070;2023-02-17T03:53:30;99944.36;;;-1.25;100.0
63691;BME280;49837;57.280;27.070;2023-02-17T03:54:30;99943.96;;;-1.24;100.0
63691;BME280;49837;57.280;27.070;2023-02-17T03:55:30;99942.52;;;-1.23;100.0
63691;BME280;49837;57.280;27.070;2023-02-17T03:56:31;99939.8;;;-1.24;100.0
63691;BME280;49837;57.280;27.070;2023-02-17T03:57:31;99940.25;;;-1.27;100.0
63691;BME280;49837;57.280;27.070;2023-02-17T03:58:32;99942.02;;;-1.24;100.0
63691;BME280;49837;57.280;27.070;2023-02-17T03:59:32;99938.8;;;-1.25;100.0
63691;BME280;49837;57.280;27.070;2023-02-17T04:00:32;99942.98;;;-1.25;100.0
63691;BME280;49837;57.280;27.070;2023-02-17T04:01:32;99939.69;;;-1.22;100.0
63691;BME280;49837;57.280;27.070;2023-02-17T04:02:33;99935.97;;;-1.22;100.0
63691;BME280;49837;57.280;27.070;2023-02-17T04:03:34;99934.66;;;-1.22;100.0
63691;BME280;49837;57.280;27.070;2023-02-17T04:04:34;99935.13;;;-1.25;100.0
63691;BME280;49837;57.280;27.070;2023-02-17T04:05:34;99937.18;;;-1.25;100.0
63691;BME280;49837;57.280;27.070;2023-02-17T04:06:34;99938.08;;;-1.25;100.0
63691;BME280;49837;57.280;27.070;2023-02-17T04:07:34;99941.64;;;-1.27;100.0
63691;BME280;49837;57.280;27.070;2023-02-17T04:08:35;99935.52;;;-1.27;100.0
63691;BME280;49837;57.280;27.070;2023-02-17T04:09:35;99933.73;;;-1.29;100.0
63691;BME280;49837;57.280;27.070;2023-02-17T04:10:35;99936.44;;;-1.24;100.0
63691;BME280;49837;57.280;27.070;2023-02-17T04:11:36;99936.83;;;-1.3;100.0
63691;BME280;49837;57.280;27.070;2023-02-17T04:12:36;99937.61;;;-1.34;100.0
63691;BME280;49837;57.280;27.070;2023-02-17T04:13:37;99936.23;;;-1.33;100.0
63691;BME280;49837;57.280;27.070;2023-02-17T04:14:37;99935.7;;;-1.29;100.0
63691;BME280;49837;57.280;27.070;2023-02-17T04:15:37;99939.95;;;-1.29;100.0
63691;BME280;49837;57.280;27.070;2023-02-17T04:16:37;99937.16;;;-1.31;100.0
63691;BME280;49837;57.280;27.070;2023-02-17T04:17:38;99932.24;;;-1.32;100.0
63691;BME280;49837;57.280;27.070;2023-02-17T04:18:38;99935.88;;;-1.3;100.0
63691;BME280;49837;57.280;27.070;2023-02-17T04:19:38;99929.8;;;-1.3;100.0
63691;BME280;49837;57.280;27.070;2023-02-17T04:20:39;99939.8;;;-1.3;100.0
63691;BME280;49837;57.280;27.070;2023-02-17T04:21:39;99936.48;;;-1.31;100.0
63691;BME280;49837;57.280;27.070;2023-02-17T04:22:39;99936.05;;;-1.29;100.0
63691;BME280;49837;57.280;27.070;2023-02-17T04:23:40;99932.11;;;-1.25;100.0
63691;BME280;49837;57.280;27.070;2023-02-17T04:24:40;99937.73;;;-1.25;100.0
63691;BME280;49837;57.280;27.070;2023-02-17T04:25:41;99932.72;;;-1.31;100.0
63691;BME280;49837;57.280;27.070;2023-02-17T04:26:41;99931.78;;;-1.35;100.0
63691;BME280;49837;57.280;27.070;2023-02-17T04:27:41;99932.7;;;-1.35;100.0
63691;BME280;49837;57.280;27.070;2023-02-17T04:28:42;99935.05;;;-1.36;100.0
63691;BME280;49837;57.280;27.070;2023-02-17T04:29:42;99933.58;;;-1.35;100.0
63691;BME280;49837;57.280;27.070;2023-02-17T04:30:46;99935.38;;;-1.3;100.0
63691;BME280;49837;57.280;27.070;2023-02-17T04:31:44;99931.78;;;-1.3;100.0
63691;BME280;49837;57.280;27.070;2023-02-17T04:32:44;99931.95;;;-1.29;100.0
63691;BME280;49837;57.280;27.070;2023-02-17T04:33:45;99929.66;;;-1.28;100.0
63691;BME280;49837;57.280;27.070;2023-02-17T04:34:45;99930.52;;;-1.22;100.0
63691;BME280;49837;57.280;27.070;2023-02-17T04:35:46;99927.33;;;-1.33;100.0
63691;BME280;49837;57.280;27.070;2023-02-17T04:36:46;99930.59;;;-1.28;100.0
63691;BME280;49837;57.280;27.070;2023-02-17T04:37:46;99930.59;;;-1.22;100.0
63691;BME280;49837;57.280;27.070;2023-02-17T04:38:46;99932.48;;;-1.25;100.0
63691;BME280;49837;57.280;27.070;2023-02-17T04:39:47;99927.67;;;-1.31;100.0
63691;BME280;49837;57.280;27.070;2023-02-17T04:40:47;99929.7;;;-1.32;100.0
63691;BME280;49837;57.280;27.070;2023-02-17T04:41:48;99928.7;;;-1.33;100.0
63691;BME280;49837;57.280;27.070;2023-02-17T04:42:48;99930.94;;;-1.32;100.0
63691;BME280;49837;57.280;27.070;2023-02-17T04:43:48;99929.03;;;-1.33;100.0
63691;BME280;49837;57.280;27.070;2023-02-17T04:44:48;99926.55;;;-1.3;100.0
63691;BME280;49837;57.280;27.070;2023-02-17T04:45:49;99928.27;;;-1.3;100.0
63691;BME280;49837;57.280;27.070;2023-02-17T04:46:49;99927.55;;;-1.27;100.0
63691;BME280;49837;57.280;27.070;2023-02-17T04:47:49;99927.66;;;-1.25;100.0
63691;BME280;49837;57.280;27.070;2023-02-17T04:48:50;99924.91;;;-1.23;100.0
63691;BME280;49837;57.280;27.070;2023-02-17T04:49:50;99926.7;;;-1.3;100.0
63691;BME280;49837;57.280;27.070;2023-02-17T04:50:50;99923.98;;;-1.32;100.0
63691;BME280;49837;57.280;27.070;2023-02-17T04:51:51;99928.31;;;-1.27;100.0
63691;BME280;49837;57.280;27.070;2023-02-17T04:52:51;99925.2;;;-1.27;100.0
63691;BME280;49837;57.280;27.070;2023-02-17T04:53:51;99929.05;;;-1.27;100.0
63691;BME280;49837;57.280;27.070;2023-02-17T04:54:52;99926.34;;;-1.33;100.0
63691;BME280;49837;57.280;27.070;2023-02-17T04:55:52;99924.98;;;-1.37;100.0
63691;BME280;49837;57.280;27.070;2023-02-17T04:56:52;99922.43;;;-1.32;100.0
63691;BME280;49837;57.280;27.070;2023-02-17T04:57:53;99920.48;;;-1.29;100.0
63691;BME280;49837;57.280;27.070;2023-02-17T04:58:53;99920.31;;;-1.24;100.0
63691;BME280;49837;57.280;27.070;2023-02-17T04:59:53;99917.31;;;-1.22;100.0
63691;BME280;49837;57.280;27.070;2023-02-17T05:00:54;99917.41;;;-1.21;100.0
63691;BME280;49837;57.280;27.070;2023-02-17T05:01:54;99918.62;;;-1.24;100.0
63691;BME280;49837;57.280;27.070;2023-02-17T05:02:55;99917.79;;;-1.23;100.0
63691;BME280;49837;57.280;27.070;2023-02-17T05:03:55;99915.9;;;-1.24;100.0
63691;BME280;49837;57.280;27.070;2023-02-17T05:04:55;99916.38;;;-1.26;100.0
63691;BME280;49837;57.280;27.070;2023-02-17T05:05:56;99917.14;;;-1.24;100.0
63691;BME280;49837;57.280;27.070;2023-02-17T05:06:56;99914.12;;;-1.24;100.0
63691;BME280;49837;57.280;27.070;2023-02-17T05:07:57;99919.34;;;-1.25;100.0
63691;BME280;49837;57.280;27.070;2023-02-17T05:08:57;99918.81;;;-1.22;100.0
63691;BME280;49837;57.280;27.070;2023-02-17T05:09:57;99916.47;;;-1.25;100.0
63691;BME280;49837;57.280;27.070;2023-02-17T05:10:57;99914.85;;;-1.29;100.0
63691;BME280;49837;57.280;27.070;2023-02-17T05:11:58;99916.2;;;-1.33;100.0
63691;BME280;49837;57.280;27.070;2023-02-17T05:12:58;99912.77;;;-1.37;100.0
63691;BME280;49837;57.280;27.070;2023-02-17T05:13:59;99912.42;;;-1.33;100.0
63691;BME280;49837;57.280;27.070;2023-02-17T05:14:59;99911.28;;;-1.28;100.0
63691;BME280;49837;57.280;27.070;2023-02-17T05:15:59;99915.59;;;-1.29;100.0
63691;BME280;49837;57.280;27.070;2023-02-17T05:16:59;99909.57;;;-1.32;100.0
63691;BME280;49837;57.280;27.070;2023-02-17T05:18:00;99911.12;;;-1.32;100.0
63691;BME280;49837;57.280;27.070;2023-02-17T05:19:00;99908.92;;;-1.32;100.0
63691;BME280;49837;57.280;27.070;2023-02-17T05:20:01;99911.72;;;-1.36;100.0
63691;BME280;49837;57.280;27.070;2023-02-17T05:21:01;99910.11;;;-1.29;100.0
63691;BME280;49837;57.280;27.070;2023-02-17T05:22:01;99910.78;;;-1.28;100.0
63691;BME280;49837;57.280;27.070;2023-02-17T05:23:01;99909.25;;;-1.32;100.0
63691;BME280;49837;57.280;27.070;2023-02-17T05:24:02;99909.42;;;-1.37;100.0
63691;BME280;49837;57.280;27.070;2023-02-17T05:25:02;99906.11;;;-1.34;100.0
63691;BME280;49837;57.280;27.070;2023-02-17T05:26:03;99905.72;;;-1.33;100.0
63691;BME280;49837;57.280;27.070;2023-02-17T05:27:03;99906.22;;;-1.31;100.0
63691;BME280;49837;57.280;27.070;2023-02-17T05:28:03;99902.88;;;-1.31;100.0
63691;BME280;49837;57.280;27.070;2023-02-17T05:29:03;99901.8;;;-1.25;100.0
63691;BME280;49837;57.280;27.070;2023-02-17T05:30:05;99899.92;;;-1.25;100.0
63691;BME280;49837;57.280;27.070;2023-02-17T05:31:04;99901.47;;;-1.27;100.0
63691;BME280;49837;57.280;27.070;2023-02-17T05:32:04;99902.42;;;-1.29;100.0
63691;BME280;49837;57.280;27.070;2023-02-17T05:33:05;99898.75;;;-1.27;100.0
63691;BME280;49837;57.280;27.070;2023-02-17T05:34:05;99897.84;;;-1.29;100.0
63691;BME280;49837;57.280;27.070;2023-02-17T05:35:06;99893.58;;;-1.29;100.0
63691;BME280;49837;57.280;27.070;2023-02-17T05:36:07;99896.33;;;-1.26;100.0
63691;BME280;49837;57.280;27.070;2023-02-17T05:37:06;99896.17;;;-1.24;100.0
63691;BME280;49837;57.280;27.070;2023-02-17T05:38:06;99896.7;;;-1.23;100.0
63691;BME280;49837;57.280;27.070;2023-02-17T05:39:07;99893.45;;;-1.27;100.0
63691;BME280;49837;57.280;27.070;2023-02-17T05:40:08;99897.55;;;-1.31;100.0
63691;BME280;49837;57.280;27.070;2023-02-17T05:41:08;99893.95;;;-1.32;100.0
63691;BME280;49837;57.280;27.070;2023-02-17T05:42:08;99898.58;;;-1.29;100.0
63691;BME280;49837;57.280;27.070;2023-02-17T05:43:08;99900.51;;;-1.31;100.0
63691;BME280;49837;57.280;27.070;2023-02-17T05:44:08;99904.74;;;-1.31;100.0
63691;BME280;49837;57.280;27.070;2023-02-17T05:45:09;99905.96;;;-1.26;100.0
63691;BME280;49837;57.280;27.070;2023-02-17T05:46:09;99904.22;;;-1.24;100.0
63691;BME280;49837;57.280;27.070;2023-02-17T05:47:09;99909.62;;;-1.29;100.0
63691;BME280;49837;57.280;27.070;2023-02-17T05:48:10;99909.7;;;-1.27;100.0
63691;BME280;49837;57.280;27.070;2023-02-17T05:49:10;99907.24;;;-1.28;100.0
63691;BME280;49837;57.280;27.070;2023-02-17T05:50:11;99906.67;;;-1.29;100.0
63691;BME280;49837;57.280;27.070;2023-02-17T05:51:11;99908.66;;;-1.28;100.0
63691;BME280;49837;57.280;27.070;2023-02-17T05:52:11;99904.34;;;-1.27;100.0
63691;BME280;49837;57.280;27.070;2023-02-17T05:53:11;99902.87;;;-1.25;100.0